createdAt,value
2023-03-06T00:00:19.737Z,6
2023-03-06T00:05:19.812Z,5
2023-03-06T00:10:19.851Z,7
2023-03-06T00:15:16.892Z,9
2023-03-06T00:20:16.704Z,7
2023-03-06T00:25:19.945Z,8
2023-03-06T00:30:19.875Z,9
2023-03-06T00:35:19.927Z,11
2023-03-06T00:40:19.898Z,8
2023-03-06T00:45:19.918Z,5
2023-03-06T00:50:19.973Z,4
2023-03-06T00:55:19.880Z,5
2023-03-06T01:00:19.878Z,4
2023-03-06T01:05:19.898Z,4
2023-03-06T01:10:16.854Z,3
2023-03-06T01:15:17.041Z,2
2023-03-06T01:20:20.158Z,2
2023-03-06T01:25:20.042Z,1
2023-03-06T01:30:19.995Z,2
2023-03-06T01:35:20.065Z,4
2023-03-06T01:40:20.100Z,4
2023-03-06T01:45:20.022Z,4
2023-03-06T01:50:19.973Z,5
2023-03-06T01:55:20.083Z,6
2023-03-06T02:00:17.061Z,6
2023-03-06T02:05:17.309Z,5
2023-03-06T02:10:20.227Z,4
2023-03-06T02:15:20.048Z,6
2023-03-06T02:20:20.255Z,6
2023-03-06T02:25:20.070Z,6
2023-03-06T02:30:20.155Z,4
2023-03-06T02:35:20.151Z,3
2023-03-06T02:40:20.178Z,0
2023-03-06T02:45:20.266Z,0
2023-03-06T02:50:20.153Z,0
2023-03-06T02:55:17.155Z,0
2023-03-06T03:00:17.134Z,0
2023-03-06T03:05:20.224Z,0
2023-03-06T03:10:20.217Z,1
2023-03-06T03:15:20.210Z,1
2023-03-06T03:20:20.297Z,3
2023-03-06T03:25:20.236Z,6
2023-03-06T03:30:20.189Z,4
2023-03-06T03:35:20.263Z,7
2023-03-06T03:40:20.279Z,7
2023-03-06T03:45:20.310Z,9
2023-03-06T03:50:17.150Z,10
2023-03-06T03:55:20.412Z,11
2023-03-06T04:00:20.321Z,10
2023-03-06T04:05:20.366Z,6
2023-03-06T04:10:20.404Z,3
2023-03-06T04:15:20.302Z,2
2023-03-06T04:20:20.366Z,1
2023-03-06T04:25:20.473Z,2
2023-03-06T04:30:20.413Z,4
2023-03-06T04:35:20.458Z,3
2023-03-06T04:40:17.242Z,5
2023-03-06T04:45:17.218Z,2
2023-03-06T04:50:20.401Z,3
2023-03-06T04:55:20.452Z,0
2023-03-06T05:00:16.640Z,1
2023-03-06T05:05:19.690Z,1
2023-03-06T05:10:19.687Z,0
2023-03-06T05:15:19.728Z,1
2023-03-06T05:20:19.786Z,1
2023-03-06T05:25:19.713Z,1
2023-03-06T05:30:19.765Z,1
2023-03-06T05:35:19.800Z,0
2023-03-06T05:40:19.704Z,0
2023-03-06T05:45:19.796Z,2
2023-03-06T05:50:16.716Z,3
2023-03-06T05:55:16.641Z,5
2023-03-06T06:00:19.838Z,3
2023-03-06T06:05:19.899Z,3
2023-03-06T06:10:19.796Z,3
2023-03-06T06:15:19.973Z,4
2023-03-06T06:20:19.827Z,7
2023-03-06T06:25:19.824Z,6
2023-03-06T06:30:19.837Z,5
2023-03-06T06:35:19.964Z,4
2023-03-06T06:40:16.957Z,5
2023-03-06T06:45:16.798Z,5
2023-03-06T06:50:19.978Z,5
2023-03-06T06:55:20.113Z,6
2023-03-06T07:00:19.923Z,5
2023-03-06T07:05:21.107Z,4
2023-03-06T07:10:21.133Z,6
2023-03-06T07:15:19.965Z,5
2023-03-06T07:20:19.992Z,3
2023-03-06T07:25:20.025Z,4
2023-03-06T07:30:20.055Z,4
2023-03-06T07:35:20.454Z,5
2023-03-06T07:40:16.831Z,4
2023-03-06T07:45:20.342Z,5
2023-03-06T07:50:20.149Z,5
2023-03-06T07:55:20.072Z,5
2023-03-06T08:00:20.111Z,5
2023-03-06T08:05:20.135Z,6
2023-03-06T08:10:20.036Z,8
2023-03-06T08:15:20.131Z,12
2023-03-06T08:20:20.161Z,12
2023-03-06T08:25:20.210Z,14
2023-03-06T08:30:17.223Z,14
2023-03-06T08:35:17.242Z,14
2023-03-06T08:40:20.128Z,12
2023-03-06T08:45:20.133Z,14
2023-03-06T08:50:20.192Z,14
2023-03-06T08:55:20.186Z,13
2023-03-06T09:00:20.192Z,13
2023-03-06T09:05:20.258Z,13
2023-03-06T09:10:17.365Z,16
2023-03-06T09:15:20.312Z,13
2023-03-06T09:20:17.157Z,15
2023-03-06T09:25:17.148Z,18
2023-03-06T09:30:20.386Z,18
2023-03-06T09:35:20.325Z,15
2023-03-06T09:40:20.292Z,16
2023-03-06T09:45:20.305Z,16
2023-03-06T09:50:20.429Z,15
2023-03-06T09:55:20.401Z,13
2023-03-06T10:00:20.348Z,15
2023-03-06T10:05:20.570Z,15
2023-03-06T10:10:20.415Z,13
2023-03-06T10:15:17.453Z,12
2023-03-06T10:20:17.336Z,12
2023-03-06T10:25:20.417Z,10
2023-03-06T10:30:20.416Z,10
2023-03-06T10:35:20.514Z,9
2023-03-06T10:40:20.762Z,8
2023-03-06T10:45:20.419Z,9
2023-03-06T10:50:20.518Z,8
2023-03-06T10:55:20.837Z,12
2023-03-06T11:00:20.750Z,11
2023-03-06T11:05:20.563Z,10
2023-03-06T11:10:17.381Z,8
2023-03-06T11:15:20.548Z,6
2023-03-06T11:20:20.523Z,6
2023-03-06T11:25:20.560Z,7
2023-03-06T11:30:20.708Z,6
2023-03-06T11:35:20.579Z,8
2023-03-06T11:40:20.641Z,6
2023-03-06T11:45:15.470Z,7
2023-03-06T11:50:20.714Z,7
2023-03-06T11:55:18.634Z,6
2023-03-06T12:00:18.590Z,8
2023-03-06T12:05:18.659Z,10
2023-03-06T12:10:18.684Z,8
2023-03-06T12:15:18.649Z,7
2023-03-06T12:20:18.575Z,9
2023-03-06T12:25:18.753Z,8
2023-03-06T12:30:18.697Z,8
2023-03-06T12:35:18.751Z,7
2023-03-06T12:40:15.795Z,10
2023-03-06T12:45:15.700Z,9
2023-03-06T12:50:18.756Z,10
2023-03-06T12:55:22.125Z,9
2023-03-06T13:00:18.818Z,9
2023-03-06T13:05:18.793Z,9
2023-03-06T13:10:18.786Z,6
2023-03-06T13:15:18.756Z,11
2023-03-06T13:20:18.764Z,10
2023-03-06T13:25:18.707Z,9
2023-03-06T13:30:18.895Z,8
2023-03-06T13:35:15.908Z,8
2023-03-06T13:40:18.852Z,10
2023-03-06T13:45:18.892Z,12
2023-03-06T13:50:18.760Z,12
2023-03-06T13:55:18.873Z,9
2023-03-06T14:00:18.919Z,10
2023-03-06T14:05:18.908Z,14
2023-03-06T14:10:18.902Z,15
2023-03-06T14:15:19.026Z,16
2023-03-06T14:20:18.947Z,15
2023-03-06T14:25:15.885Z,10
2023-03-06T14:30:15.817Z,14
2023-03-06T14:35:19.470Z,11
2023-03-06T14:40:18.999Z,8
2023-03-06T14:45:19.033Z,8
2023-03-06T14:50:19.016Z,10
2023-03-06T14:55:19.053Z,9
2023-03-06T15:00:19.084Z,11
2023-03-06T15:05:19.139Z,8
2023-03-06T15:10:19.079Z,8
2023-03-06T15:15:19.066Z,13
2023-03-06T15:20:15.970Z,14
2023-03-06T15:25:19.137Z,13
2023-03-06T15:30:19.126Z,11
2023-03-06T15:35:19.183Z,9
2023-03-06T15:40:19.090Z,10
2023-03-06T15:45:19.221Z,12
2023-03-06T15:50:19.091Z,13
2023-03-06T15:55:19.176Z,19
2023-03-06T16:00:27.451Z,11
2023-03-06T16:05:19.142Z,15
2023-03-06T16:10:16.111Z,11
2023-03-06T16:15:16.124Z,13
2023-03-06T16:20:19.319Z,15
2023-03-06T16:25:19.141Z,15
2023-03-06T16:30:19.226Z,12
2023-03-06T16:35:19.313Z,12
2023-03-06T16:40:19.218Z,18
2023-03-06T16:45:19.259Z,19
2023-03-06T16:50:19.263Z,11
2023-03-06T16:55:19.346Z,12
2023-03-06T17:00:19.300Z,17
2023-03-06T17:05:16.221Z,18
2023-03-06T17:10:19.524Z,15
2023-03-06T17:15:19.360Z,17
2023-03-06T17:20:19.405Z,17
2023-03-06T17:25:19.368Z,15
2023-03-06T17:30:19.404Z,10
2023-03-06T17:35:19.392Z,9
2023-03-06T17:40:19.796Z,11
2023-03-06T17:45:19.304Z,12
2023-03-06T17:50:19.393Z,10
2023-03-06T17:55:16.441Z,16
2023-03-06T18:00:16.397Z,11
2023-03-06T18:05:19.547Z,15
2023-03-06T18:10:19.460Z,14
2023-03-06T18:15:19.472Z,17
2023-03-06T18:20:19.504Z,15
2023-03-06T18:25:19.383Z,18
2023-03-06T18:30:19.695Z,17
2023-03-06T18:35:19.875Z,21
2023-03-06T18:40:19.570Z,8
2023-03-06T18:45:19.511Z,18
2023-03-06T18:50:16.432Z,22
2023-03-06T18:55:16.396Z,19
2023-03-06T19:00:19.528Z,19
2023-03-06T19:05:19.570Z,20
2023-03-06T19:10:19.585Z,20
2023-03-06T19:15:19.600Z,19
2023-03-06T19:20:19.607Z,15
2023-03-06T19:25:19.613Z,16
2023-03-06T19:30:19.575Z,23
2023-03-06T19:35:19.598Z,17
2023-03-06T19:40:19.725Z,15
2023-03-06T19:45:16.530Z,18
2023-03-06T19:50:19.656Z,22
2023-03-06T19:55:19.658Z,21
2023-03-06T20:00:19.714Z,20
2023-03-06T20:05:19.632Z,24
2023-03-06T20:10:19.635Z,19
2023-03-06T20:15:19.746Z,17
2023-03-06T20:20:19.794Z,16
2023-03-06T20:25:19.747Z,20
2023-03-06T20:30:19.698Z,20
2023-03-06T20:35:16.706Z,21
2023-03-06T20:40:16.750Z,19
2023-03-06T20:45:19.779Z,20
2023-03-06T20:50:19.850Z,21
2023-03-06T20:55:19.833Z,19
2023-03-06T21:00:19.770Z,19
2023-03-06T21:05:19.877Z,12
2023-03-06T21:10:19.788Z,16
2023-03-06T21:15:19.805Z,17
2023-03-06T21:20:19.809Z,18
2023-03-06T21:25:19.909Z,20
2023-03-06T21:30:16.760Z,17
2023-03-06T21:35:19.911Z,15
2023-03-06T21:40:19.998Z,14
2023-03-06T21:45:19.910Z,14
2023-03-06T21:50:19.826Z,11
2023-03-06T21:55:19.900Z,14
2023-03-06T22:00:19.972Z,10
2023-03-06T22:05:19.909Z,12
2023-03-06T22:10:19.979Z,13
2023-03-06T22:15:19.906Z,12
2023-03-06T22:20:16.834Z,14
2023-03-06T22:25:16.892Z,15
2023-03-06T22:30:19.931Z,12
2023-03-06T22:35:20.278Z,7
2023-03-06T22:40:20.033Z,4
2023-03-06T22:45:20.025Z,3
2023-03-06T22:50:20.116Z,4
2023-03-06T22:55:20.027Z,6
2023-03-06T23:00:19.991Z,7
2023-03-06T23:05:20.072Z,12
2023-03-06T23:10:20.135Z,12
2023-03-06T23:15:16.953Z,11
2023-03-06T23:20:16.963Z,12
2023-03-06T23:25:20.147Z,13
2023-03-06T23:30:20.123Z,12
2023-03-06T23:35:20.174Z,12
2023-03-06T23:40:20.510Z,12
2023-03-06T23:45:20.681Z,11
2023-03-06T23:50:20.516Z,11
2023-03-06T23:55:20.191Z,11
